Terminal Aerodrome Forecast
Issued by NWS Shreveport, LA

Home | Current Version | Previous Version | Text Only | Print | Product List | Glossary On
Versions: 1 2 3 4 5 6 7 8 9 10 11 12
000
FTUS44 KSHV 260529
TAFSHV
TAF
KSHV 260529Z 2606/2706 VRB03KT P6SM SKC
     FM261500 13008KT P6SM FEW100
     FM261900 15011KT P6SM SCT100
     FM270000 15011KT P6SM SCT040 BKN070
     FM270500 15008KT P6SM VCSH SCT020 BKN040=

USA.gov is the U.S. government's official web portal to all federal, state and local government web resources and services.